Time;durP1;ratioP1;P1;durP2;ratioP2;P2;SDS_P1;SDS_P2;PMS_P1;PMS_P2;Temp;Humidity;BMP_temperature;BMP_pressure;BME280_temperature;BME280_humidity;BME280_pressure;Samples;Min_cycle;Max_cycle;Signal;HPM_P1;HPM_P2
2021/08/08 00:00:41;;;;;;;4.20;2.70;;;13.60;99.90;;;;;;5054034;28;20186;-76
2021/08/08 00:03:06;;;;;;;4.13;2.43;;;13.60;99.90;;;;;;5044025;28;20315;-75
2021/08/08 00:05:32;;;;;;;3.00;2.60;;;13.60;99.90;;;;;;5044923;28;20205;-76
2021/08/08 00:07:58;;;;;;;3.00;1.93;;;13.70;99.90;;;;;;5047729;28;20186;-76
2021/08/08 00:10:23;;;;;;;2.63;2.40;;;13.90;99.90;;;;;;5044458;28;20202;-76
2021/08/08 00:12:49;;;;;;;2.90;2.37;;;13.60;99.90;;;;;;5045926;28;20185;-76
2021/08/08 00:15:15;;;;;;;5.73;2.70;;;13.90;99.90;;;;;;5044362;28;20174;-76
2021/08/08 00:17:41;;;;;;;3.30;2.67;;;14.00;99.90;;;;;;5045706;28;20179;-76
2021/08/08 00:20:07;;;;;;;2.87;2.57;;;13.60;99.90;;;;;;5043780;28;20186;-75
2021/08/08 00:22:33;;;;;;;4.37;2.30;;;13.70;99.90;;;;;;5042272;28;20413;-76
2021/08/08 00:25:04;;;;;;;3.47;2.33;;;13.70;99.90;;;;;;5044031;28;20432;-76
2021/08/08 00:27:29;;;;;;;3.13;2.50;;;13.60;99.90;;;;;;5047340;28;20183;-76
2021/08/08 00:29:55;;;;;;;4.53;2.60;;;13.70;99.90;;;;;;5047469;28;20989;-77
2021/08/08 00:32:23;;;;;;;2.83;2.50;;;13.70;99.90;;;;;;5043725;28;20545;-76
2021/08/08 00:34:48;;;;;;;3.10;2.30;;;13.80;99.90;;;;;;5047936;28;20265;-76
2021/08/08 00:37:14;;;;;;;3.37;3.07;;;13.70;99.90;;;;;;5043509;28;20551;-76
2021/08/08 00:39:39;;;;;;;2.57;2.37;;;13.80;99.90;;;;;;5039410;28;20623;-76
2021/08/08 00:42:05;;;;;;;3.07;2.77;;;13.60;99.90;;;;;;5035645;28;20190;-77
2021/08/08 00:44:30;;;;;;;2.30;2.10;;;14.00;99.90;;;;;;5045544;28;20209;-76
2021/08/08 00:46:57;;;;;;;2.50;2.03;;;13.90;99.90;;;;;;5046006;28;20238;-76
2021/08/08 00:49:23;;;;;;;2.60;1.93;;;14.00;99.90;;;;;;5041869;28;20679;-76
2021/08/08 00:51:50;;;;;;;2.30;2.10;;;13.90;99.90;;;;;;5045832;28;20786;-76
2021/08/08 00:54:15;;;;;;;3.93;2.80;;;13.90;99.90;;;;;;5045082;28;20433;-76
2021/08/08 00:56:41;;;;;;;3.00;2.80;;;14.00;99.90;;;;;;5045385;28;20436;-76
2021/08/08 00:59:07;;;;;;;3.80;2.47;;;14.00;99.90;;;;;;5044003;28;20225;-76
2021/08/08 01:01:41;;;;;;;2.47;2.27;;;13.70;99.90;;;;;;5045107;28;20186;-75
2021/08/08 01:04:10;;;;;;;4.37;3.10;;;13.60;99.90;;;;;;5045429;28;20189;-75
2021/08/08 01:06:47;;;;;;;2.63;2.40;;;13.50;99.90;;;;;;5045181;28;20471;-76
2021/08/08 01:09:13;;;;;;;3.63;1.90;;;13.40;99.90;;;;;;5043499;28;20539;-75
2021/08/08 01:11:39;;;;;;;3.00;2.30;;;13.30;99.90;;;;;;5040319;28;20541;-76
2021/08/08 01:14:07;;;;;;;3.13;2.60;;;13.40;99.90;;;;;;5042081;28;20458;-75
2021/08/08 01:16:34;;;;;;;2.33;2.00;;;13.30;99.90;;;;;;5044820;28;20421;-77
2021/08/08 01:19:00;;;;;;;2.30;2.03;;;13.10;99.90;;;;;;5048933;28;20522;-77
2021/08/08 01:21:30;;;;;;;3.17;2.20;;;13.30;99.90;;;;;;5048661;28;20463;-76
2021/08/08 01:24:03;;;;;;;2.97;2.10;;;13.10;99.90;;;;;;5047596;28;20911;-76
2021/08/08 01:26:30;;;;;;;3.70;2.30;;;13.20;99.90;;;;;;5047252;28;20986;-76
2021/08/08 01:28:57;;;;;;;2.60;2.40;;;13.10;99.90;;;;;;5048797;28;20456;-77
2021/08/08 01:31:23;;;;;;;3.20;2.17;;;13.30;99.90;;;;;;5047168;28;20424;-76
2021/08/08 01:33:48;;;;;;;3.30;2.27;;;13.30;99.90;;;;;;5048697;28;20452;-76
2021/08/08 01:36:14;;;;;;;1.93;1.83;;;13.30;99.90;;;;;;5046761;28;20802;-75
2021/08/08 01:38:58;;;;;;;3.40;2.27;;;13.40;99.90;;;;;;5048429;28;20328;-76
2021/08/08 01:41:28;;;;;;;3.43;2.03;;;13.20;99.90;;;;;;5050562;28;20434;-76
2021/08/08 01:43:55;;;;;;;2.93;2.50;;;13.30;99.90;;;;;;5048979;28;20507;-76
2021/08/08 01:46:23;;;;;;;2.30;2.10;;;13.40;99.90;;;;;;5049988;28;20437;-77
2021/08/08 01:48:52;;;;;;;4.00;1.80;;;13.40;99.90;;;;;;5046866;28;20860;-76
2021/08/08 01:51:19;;;;;;;2.60;2.40;;;13.40;99.90;;;;;;5050165;28;20421;-77
2021/08/08 01:53:45;;;;;;;1.93;1.83;;;13.30;99.90;;;;;;5047446;28;20483;-76
2021/08/08 01:56:12;;;;;;;1.73;1.60;;;13.50;99.90;;;;;;5044596;28;20428;-76
2021/08/08 01:58:39;;;;;;;2.00;1.80;;;13.10;99.90;;;;;;5050298;28;20430;-77
2021/08/08 02:01:04;;;;;;;2.42;2.03;;;13.40;99.90;;;;;;5046461;28;20471;-76
2021/08/08 02:03:34;;;;;;;2.30;2.20;;;13.10;99.90;;;;;;5048173;28;20187;-76
2021/08/08 02:06:00;;;;;;;2.97;2.67;;;13.00;99.90;;;;;;5032719;28;20220;-72
2021/08/08 02:08:26;;;;;;;2.08;1.90;;;13.20;99.90;;;;;;5046078;28;20419;-75
2021/08/08 02:10:51;;;;;;;2.57;2.37;;;13.00;99.90;;;;;;5044232;28;20597;-75
2021/08/08 02:13:17;;;;;;;3.00;2.80;;;13.00;99.90;;;;;;5048384;28;20236;-75
2021/08/08 02:15:42;;;;;;;4.47;4.17;;;13.00;99.90;;;;;;5050821;28;20202;-75
2021/08/08 02:18:08;;;;;;;5.63;5.23;;;12.80;99.90;;;;;;5047512;28;20205;-75
2021/08/08 02:20:34;;;;;;;6.90;6.20;;;13.00;99.90;;;;;;5046839;28;20182;-75
2021/08/08 02:22:59;;;;;;;5.93;5.40;;;12.70;99.90;;;;;;5047352;28;20190;-74
2021/08/08 02:25:25;;;;;;;4.97;4.57;;;12.70;99.90;;;;;;5046039;28;20190;-75
2021/08/08 02:27:50;;;;;;;7.10;3.30;;;12.90;99.90;;;;;;5045887;28;20205;-75
2021/08/08 02:30:16;;;;;;;3.10;2.90;;;12.90;99.90;;;;;;5041811;28;20242;-75
2021/08/08 02:32:41;;;;;;;2.53;2.30;;;13.00;99.90;;;;;;5045005;28;20751;-77
2021/08/08 02:35:07;;;;;;;4.13;2.90;;;13.10;99.90;;;;;;5046341;28;20213;-76
2021/08/08 02:37:33;;;;;;;2.90;2.70;;;13.10;99.90;;;;;;5047013;28;20294;-76
2021/08/08 02:39:59;;;;;;;3.03;2.63;;;13.10;99.90;;;;;;5048496;28;20936;-76
2021/08/08 02:42:25;;;;;;;3.00;2.80;;;13.20;99.90;;;;;;5048485;28;20270;-76
2021/08/08 02:44:50;;;;;;;3.80;3.40;;;13.20;99.90;;;;;;5046531;28;20190;-75
2021/08/08 02:47:16;;;;;;;3.40;2.83;;;13.00;99.90;;;;;;5045132;28;20475;-76
2021/08/08 02:49:41;;;;;;;3.80;2.77;;;13.20;99.90;;;;;;5044922;28;20669;-75
2021/08/08 02:52:07;;;;;;;5.30;3.70;;;13.00;99.90;;;;;;5048194;28;20179;-75
2021/08/08 02:54:33;;;;;;;4.63;4.23;;;13.20;99.90;;;;;;5046593;28;20187;-75
2021/08/08 02:56:58;;;;;;;4.40;4.00;;;12.90;99.90;;;;;;5046417;28;20425;-76
2021/08/08 02:59:24;;;;;;;5.80;4.60;;;12.60;99.90;;;;;;5041137;28;20993;-75
2021/08/08 03:01:49;;;;;;;4.73;4.40;;;12.90;99.90;;;;;;5045095;28;20190;-75
2021/08/08 03:04:15;;;;;;;14.53;13.30;;;12.60;99.90;;;;;;5044597;28;20200;-77
2021/08/08 03:06:45;;;;;;;15.00;13.63;;;12.70;99.90;;;;;;5048047;28;21162;-77
2021/08/08 03:09:10;;;;;;;8.20;7.50;;;12.70;99.90;;;;;;5048141;28;20210;-76
2021/08/08 03:11:36;;;;;;;5.00;4.57;;;13.00;99.90;;;;;;5047849;28;20436;-77
2021/08/08 03:14:01;;;;;;;4.43;4.03;;;12.90;99.90;;;;;;5043361;28;20190;-77
2021/08/08 03:16:27;;;;;;;5.53;3.27;;;13.10;99.90;;;;;;5045822;28;20186;-77
2021/08/08 03:18:52;;;;;;;3.50;3.20;;;13.30;99.90;;;;;;5044147;28;20176;-77
2021/08/08 03:21:18;;;;;;;3.37;3.07;;;12.90;99.90;;;;;;5045585;28;20178;-77
2021/08/08 03:23:44;;;;;;;2.80;2.60;;;13.10;99.90;;;;;;5046253;28;20214;-77
2021/08/08 03:26:09;;;;;;;4.00;2.13;;;13.20;99.90;;;;;;5043876;28;20536;-77
2021/08/08 03:28:35;;;;;;;4.17;3.07;;;13.30;99.90;;;;;;5040774;28;20484;-76
2021/08/08 03:31:00;;;;;;;2.77;2.57;;;13.20;99.90;;;;;;5044400;28;20210;-76
2021/08/08 03:33:26;;;;;;;3.57;2.80;;;13.10;99.90;;;;;;5049508;28;20198;-76
2021/08/08 03:35:51;;;;;;;3.43;3.10;;;13.20;99.90;;;;;;5047637;28;20182;-75
2021/08/08 03:38:17;;;;;;;2.50;2.30;;;13.20;99.90;;;;;;5047122;28;20282;-76
2021/08/08 03:40:42;;;;;;;5.00;2.80;;;13.10;99.90;;;;;;5045301;28;20186;-75
2021/08/08 03:43:09;;;;;;;4.70;3.13;;;13.10;99.90;;;;;;5045931;28;20210;-76
2021/08/08 03:45:34;;;;;;;3.50;2.70;;;12.80;99.90;;;;;;5045203;28;20432;-76
2021/08/08 03:48:00;;;;;;;2.70;2.50;;;12.80;99.90;;;;;;5045435;28;20186;-76
2021/08/08 03:50:26;;;;;;;2.53;2.33;;;12.90;99.90;;;;;;5038729;28;20246;-77
2021/08/08 03:52:51;;;;;;;3.07;2.77;;;12.90;99.90;;;;;;5042204;28;20186;-77
2021/08/08 03:55:17;;;;;;;3.97;2.27;;;12.90;99.90;;;;;;5043628;28;20448;-77
2021/08/08 03:57:42;;;;;;;3.20;2.23;;;12.70;99.90;;;;;;5041449;28;20194;-77
2021/08/08 04:00:09;;;;;;;2.80;2.60;;;12.80;99.90;;;;;;5049115;28;20252;-77
2021/08/08 04:02:34;;;;;;;2.60;2.40;;;12.70;99.90;;;;;;5046797;28;20477;-77
2021/08/08 04:05:00;;;;;;;2.90;2.13;;;12.80;99.90;;;;;;5047558;28;20433;-77
2021/08/08 04:07:25;;;;;;;3.43;2.60;;;12.70;99.90;;;;;;5045254;28;20182;-77
2021/08/08 04:09:51;;;;;;;3.10;2.53;;;12.80;99.90;;;;;;5048079;28;20213;-77
2021/08/08 04:12:16;;;;;;;2.93;2.63;;;12.70;99.90;;;;;;5043656;28;20193;-77
2021/08/08 04:14:43;;;;;;;3.37;2.60;;;12.70;99.90;;;;;;5041594;28;20750;-77
2021/08/08 04:17:09;;;;;;;3.45;2.45;;;12.60;99.90;;;;;;5040429;28;20627;-77
2021/08/08 04:19:34;;;;;;;2.80;2.50;;;12.70;99.90;;;;;;5043300;28;20186;-77
2021/08/08 04:22:02;;;;;;;2.60;2.40;;;12.70;99.90;;;;;;5045740;28;20282;-77
2021/08/08 04:24:28;;;;;;;2.85;2.35;;;12.70;99.90;;;;;;5041526;28;20187;-76
2021/08/08 04:26:53;;;;;;;2.53;2.33;;;12.60;99.90;;;;;;5044936;28;20210;-77
2021/08/08 04:29:21;;;;;;;2.57;2.37;;;12.20;99.90;;;;;;5048710;28;20206;-77
2021/08/08 04:31:46;;;;;;;7.57;3.65;;;12.20;99.90;;;;;;5044794;28;20221;-75
2021/08/08 04:34:12;;;;;;;2.50;2.30;;;12.50;99.90;;;;;;5044923;28;20691;-75
2021/08/08 04:36:37;;;;;;;5.50;2.27;;;12.50;99.90;;;;;;5047034;28;20179;-75
2021/08/08 04:39:03;;;;;;;2.60;2.40;;;12.20;99.90;;;;;;5042981;28;20232;-75
2021/08/08 04:41:28;;;;;;;2.60;2.40;;;12.50;99.90;;;;;;5044625;28;20201;-75
2021/08/08 04:43:54;;;;;;;2.70;2.50;;;12.60;99.90;;;;;;5044389;28;20190;-75
2021/08/08 04:46:19;;;;;;;3.77;3.37;;;12.30;99.90;;;;;;5044732;28;20208;-75
2021/08/08 04:48:45;;;;;;;4.27;3.87;;;12.60;99.90;;;;;;5043085;28;20400;-75
2021/08/08 04:51:10;;;;;;;4.40;4.00;;;12.70;99.90;;;;;;5043699;28;20174;-74
2021/08/08 04:53:36;;;;;;;4.57;4.07;;;12.50;99.90;;;;;;5050448;28;20223;-74
2021/08/08 04:56:01;;;;;;;3.00;2.80;;;12.70;99.90;;;;;;5050072;28;20226;-75
2021/08/08 04:58:27;;;;;;;5.93;5.43;;;12.80;99.90;;;;;;5048992;28;20417;-75
2021/08/08 05:00:52;;;;;;;6.70;6.00;;;12.90;99.90;;;;;;5050723;28;20195;-75
2021/08/08 05:03:18;;;;;;;6.13;5.50;;;12.80;99.90;;;;;;5046578;28;20652;-75
2021/08/08 05:05:43;;;;;;;7.00;5.13;;;12.80;99.90;;;;;;5043619;28;20213;-74
2021/08/08 05:08:09;;;;;;;10.70;9.70;;;13.10;99.90;;;;;;5045074;28;20656;-75
2021/08/08 05:10:34;;;;;;;9.53;8.77;;;12.60;99.90;;;;;;5048568;28;20208;-77
2021/08/08 05:13:00;;;;;;;7.50;6.57;;;13.00;99.90;;;;;;5046764;28;20189;-75
2021/08/08 05:15:26;;;;;;;6.77;6.17;;;13.30;99.90;;;;;;5048483;28;20194;-77
2021/08/08 05:17:51;;;;;;;5.27;4.87;;;13.80;99.90;;;;;;5048691;28;20179;-75
2021/08/08 05:20:17;;;;;;;4.03;3.77;;;14.10;99.90;;;;;;5046580;28;20204;-76
2021/08/08 05:22:43;;;;;;;3.67;3.37;;;14.30;99.90;;;;;;5051022;28;20183;-76
2021/08/08 05:25:10;;;;;;;2.67;2.47;;;14.80;99.90;;;;;;5049972;28;20428;-76
2021/08/08 05:27:36;;;;;;;3.27;3.00;;;15.50;99.90;;;;;;5040855;28;20440;-77
2021/08/08 05:30:04;;;;;;;2.30;2.10;;;15.70;99.90;;;;;;5045226;28;20995;-77
2021/08/08 05:32:29;;;;;;;2.40;2.20;;;16.10;99.90;;;;;;5038278;28;20595;-77
2021/08/08 05:34:55;;;;;;;2.23;2.00;;;16.30;99.90;;;;;;5041370;28;20433;-77
2021/08/08 05:37:22;;;;;;;2.30;2.10;;;16.90;99.90;;;;;;5044676;28;20220;-76
2021/08/08 05:39:47;;;;;;;2.40;2.20;;;17.10;99.90;;;;;;5042812;28;20194;-77
2021/08/08 05:42:13;;;;;;;3.27;2.10;;;17.50;99.90;;;;;;5048449;28;20944;-76
2021/08/08 05:44:38;;;;;;;1.87;1.43;;;17.30;99.90;;;;;;5047517;28;20555;-77
2021/08/08 05:47:05;;;;;;;1.60;1.50;;;17.50;99.90;;;;;;5050096;28;20186;-77
2021/08/08 05:49:33;;;;;;;1.70;1.13;;;17.50;99.90;;;;;;5047462;28;20696;-76
2021/08/08 05:52:02;;;;;;;1.70;1.60;;;17.30;99.90;;;;;;5049411;28;20891;-78
2021/08/08 05:54:29;;;;;;;1.47;1.33;;;17.50;99.90;;;;;;5047718;28;20476;-77
2021/08/08 05:56:55;;;;;;;3.23;1.60;;;17.90;99.90;;;;;;5047835;28;20471;-77
2021/08/08 05:59:20;;;;;;;3.30;1.30;;;18.20;99.90;;;;;;5047171;28;20553;-77
2021/08/08 06:01:46;;;;;;;1.30;1.20;;;18.70;99.90;;;;;;5046910;28;20425;-77
2021/08/08 06:04:12;;;;;;;3.03;1.10;;;18.60;99.90;;;;;;5047649;28;20597;-76
2021/08/08 06:06:37;;;;;;;3.00;1.60;;;18.90;99.90;;;;;;5044162;28;20192;-76
2021/08/08 06:09:03;;;;;;;1.30;1.20;;;19.20;99.90;;;;;;5041836;28;20665;-76
2021/08/08 06:11:28;;;;;;;1.50;1.40;;;19.60;99.90;;;;;;5044115;28;20308;-76
2021/08/08 06:13:54;;;;;;;1.50;1.40;;;19.80;99.90;;;;;;5049265;28;20186;-77
2021/08/08 06:16:20;;;;;;;1.57;1.50;;;20.20;99.90;;;;;;5050154;28;20178;-78
2021/08/08 06:18:45;;;;;;;1.47;1.23;;;20.70;99.90;;;;;;5043499;28;20184;-76
2021/08/08 06:21:11;;;;;;;1.80;1.70;;;20.70;99.90;;;;;;5047275;28;20179;-76
2021/08/08 06:23:36;;;;;;;1.40;1.20;;;21.00;99.90;;;;;;5048840;28;20187;-77
2021/08/08 06:26:02;;;;;;;1.50;1.40;;;20.60;99.90;;;;;;5047281;28;20186;-76
2021/08/08 06:28:28;;;;;;;1.00;1.00;;;20.30;98.00;;;;;;5047576;28;20214;-76
2021/08/08 06:30:53;;;;;;;2.10;1.40;;;19.70;99.90;;;;;;5042987;28;20229;-73
2021/08/08 06:33:19;;;;;;;1.50;1.30;;;19.50;99.90;;;;;;5047606;28;20706;-74
2021/08/08 06:35:45;;;;;;;2.33;1.20;;;19.20;99.90;;;;;;5047418;28;20211;-73
2021/08/08 06:38:10;;;;;;;1.40;1.30;;;19.00;99.90;;;;;;5041901;28;20320;-74
2021/08/08 06:40:36;;;;;;;1.83;1.67;;;18.30;99.90;;;;;;5049167;28;20193;-73
2021/08/08 06:43:04;;;;;;;1.43;1.33;;;18.40;99.90;;;;;;5047003;28;20192;-74
2021/08/08 06:45:31;;;;;;;1.93;1.60;;;18.30;99.90;;;;;;5047309;28;20405;-74
2021/08/08 06:47:59;;;;;;;2.17;1.97;;;18.10;99.90;;;;;;5047559;28;20442;-74
2021/08/08 06:50:24;;;;;;;3.77;1.90;;;17.90;99.90;;;;;;5042298;28;20474;-74
2021/08/08 06:52:50;;;;;;;3.80;1.90;;;17.50;99.90;;;;;;5042299;28;20782;-73
2021/08/08 06:55:15;;;;;;;1.70;1.60;;;17.40;99.90;;;;;;5045940;28;20172;-73
2021/08/08 06:57:41;;;;;;;2.10;1.90;;;17.70;99.90;;;;;;5047190;28;20280;-73
2021/08/08 07:00:07;;;;;;;3.40;1.70;;;17.70;99.90;;;;;;5045441;28;20202;-73
2021/08/08 07:02:32;;;;;;;2.20;2.10;;;17.60;99.90;;;;;;5041189;28;20195;-73
2021/08/08 07:04:58;;;;;;;2.60;1.67;;;17.60;99.90;;;;;;5044927;28;20426;-73
2021/08/08 07:07:23;;;;;;;1.63;1.53;;;17.80;99.90;;;;;;5050440;28;20286;-73
2021/08/08 07:09:49;;;;;;;1.70;1.60;;;17.90;99.90;;;;;;5048158;28;20799;-72
2021/08/08 07:12:14;;;;;;;1.97;1.77;;;17.50;99.90;;;;;;5044794;28;20270;-73
2021/08/08 07:14:40;;;;;;;2.13;1.93;;;17.60;99.90;;;;;;5046236;28;20180;-74
2021/08/08 07:17:06;;;;;;;1.93;1.83;;;17.40;99.90;;;;;;5043032;28;20665;-74
2021/08/08 07:19:31;;;;;;;1.97;1.80;;;17.70;99.90;;;;;;5045246;28;20230;-73
2021/08/08 07:21:57;;;;;;;1.87;1.77;;;17.70;99.90;;;;;;5047192;28;20591;-73
2021/08/08 07:24:23;;;;;;;2.03;1.80;;;17.70;99.90;;;;;;5044440;28;20256;-73
2021/08/08 07:26:48;;;;;;;1.90;1.80;;;17.90;99.90;;;;;;5044345;28;20184;-73
2021/08/08 07:29:14;;;;;;;2.23;1.50;;;18.20;99.90;;;;;;5045170;28;20828;-72
2021/08/08 07:31:39;;;;;;;1.90;1.80;;;18.40;99.90;;;;;;5044742;28;20210;-73
2021/08/08 07:34:05;;;;;;;1.97;1.87;;;18.80;99.90;;;;;;5047799;28;20231;-75
2021/08/08 07:36:31;;;;;;;1.57;1.47;;;18.80;99.90;;;;;;5045917;28;20635;-75
2021/08/08 07:38:57;;;;;;;1.70;1.60;;;19.00;99.90;;;;;;5046252;28;20249;-74
2021/08/08 07:41:22;;;;;;;2.07;1.80;;;19.20;99.90;;;;;;5041695;28;20187;-72
2021/08/08 07:43:48;;;;;;;2.30;1.70;;;19.20;99.90;;;;;;5042918;28;20933;-74
2021/08/08 07:46:14;;;;;;;2.00;1.90;;;19.50;99.90;;;;;;5042174;28;20307;-73
2021/08/08 07:48:40;;;;;;;1.40;1.30;;;19.60;99.90;;;;;;5046372;28;20212;-71
2021/08/08 07:51:06;;;;;;;1.70;1.60;;;20.00;99.90;;;;;;5044166;28;20479;-73
2021/08/08 07:53:32;;;;;;;3.53;1.50;;;19.80;99.90;;;;;;5041802;28;20420;-73
2021/08/08 07:55:57;;;;;;;1.90;1.80;;;20.40;98.70;;;;;;5045835;28;20186;-75
2021/08/08 07:58:23;;;;;;;1.97;1.60;;;20.50;91.60;;;;;;5049164;28;20186;-72
2021/08/08 08:00:49;;;;;;;2.57;1.70;;;20.40;94.90;;;;;;5045586;28;20228;-73
2021/08/08 08:03:15;;;;;;;1.93;1.73;;;20.60;93.50;;;;;;5043287;28;20555;-73
2021/08/08 08:05:40;;;;;;;1.87;1.77;;;20.40;93.10;;;;;;5043567;28;20443;-73
2021/08/08 08:08:07;;;;;;;2.03;1.60;;;20.70;90.90;;;;;;5040477;28;20713;-73
2021/08/08 08:10:33;;;;;;;1.90;1.60;;;20.80;91.50;;;;;;5041690;28;20249;-74
2021/08/08 08:13:00;;;;;;;1.97;1.80;;;20.90;92.70;;;;;;5041113;28;20428;-73
2021/08/08 08:15:28;;;;;;;1.70;1.60;;;21.00;91.70;;;;;;5045608;28;21006;-73
2021/08/08 08:17:57;;;;;;;1.63;1.20;;;21.00;91.60;;;;;;5043561;28;20528;-73
2021/08/08 08:20:23;;;;;;;1.53;1.43;;;21.30;92.50;;;;;;5043850;28;20438;-73
2021/08/08 08:22:50;;;;;;;1.70;1.60;;;21.20;90.50;;;;;;5049088;28;20440;-73
2021/08/08 08:25:17;;;;;;;1.83;1.43;;;21.30;85.20;;;;;;5044932;28;20829;-73
2021/08/08 08:27:43;;;;;;;2.60;1.30;;;21.40;89.90;;;;;;5045208;28;20439;-73
2021/08/08 08:30:09;;;;;;;1.47;1.47;;;21.00;82.60;;;;;;5043914;28;20465;-73
2021/08/08 08:32:35;;;;;;;1.97;1.80;;;21.00;79.60;;;;;;5046861;28;20459;-73
2021/08/08 08:35:03;;;;;;;4.03;1.60;;;20.90;83.10;;;;;;5043974;28;20433;-73
2021/08/08 08:37:33;;;;;;;1.67;1.57;;;20.70;82.40;;;;;;5048413;28;20228;-72
2021/08/08 08:39:59;;;;;;;1.83;1.73;;;21.30;87.40;;;;;;5041823;28;20433;-72
2021/08/08 08:42:28;;;;;;;2.93;1.40;;;21.20;83.90;;;;;;5045452;28;20785;-72
2021/08/08 08:44:54;;;;;;;2.23;1.83;;;20.80;81.40;;;;;;5037351;28;20440;-73
2021/08/08 08:47:23;;;;;;;2.00;1.80;;;20.80;82.80;;;;;;5043536;28;20428;-73
2021/08/08 08:49:57;;;;;;;1.60;1.50;;;20.80;85.60;;;;;;5044975;28;20968;-72
2021/08/08 08:52:26;;;;;;;1.50;1.40;;;20.30;86.20;;;;;;5047102;28;20459;-73
2021/08/08 08:54:51;;;;;;;1.87;1.47;;;20.30;90.60;;;;;;5048444;28;20976;-73
2021/08/08 08:57:17;;;;;;;4.37;1.83;;;20.30;90.00;;;;;;5044960;28;20464;-73
2021/08/08 08:59:44;;;;;;;1.87;1.70;;;20.00;91.60;;;;;;5046881;28;20190;-72
2021/08/08 09:02:11;;;;;;;2.77;1.47;;;20.10;91.50;;;;;;5043463;28;20202;-73
2021/08/08 09:04:37;;;;;;;2.30;1.70;;;19.90;89.00;;;;;;5045004;28;21129;-73
2021/08/08 09:07:04;;;;;;;2.03;1.83;;;20.10;92.00;;;;;;5039518;28;20469;-70
2021/08/08 09:09:31;;;;;;;2.33;2.13;;;20.20;92.20;;;;;;5041062;28;20543;-72
2021/08/08 09:11:56;;;;;;;1.77;1.67;;;20.20;94.30;;;;;;5044417;28;20439;-73
2021/08/08 09:14:23;;;;;;;2.37;2.17;;;20.50;97.40;;;;;;5044674;28;20802;-73
2021/08/08 09:16:51;;;;;;;1.63;1.53;;;20.90;97.00;;;;;;5047624;28;20407;-73
2021/08/08 09:19:27;;;;;;;2.10;1.67;;;21.50;94.30;;;;;;5042796;28;20455;-75
2021/08/08 09:21:54;;;;;;;1.73;1.63;;;23.70;92.60;;;;;;5044040;28;20429;-74
2021/08/08 09:24:31;;;;;;;1.40;1.33;;;25.20;85.50;;;;;;5044746;28;20430;-74
2021/08/08 09:27:03;;;;;;;1.70;1.40;;;26.70;80.80;;;;;;5046061;28;20432;-75
2021/08/08 09:29:28;;;;;;;1.43;1.20;;;27.80;77.20;;;;;;5040919;28;20465;-74
2021/08/08 09:31:54;;;;;;;1.50;1.40;;;28.70;60.00;;;;;;5042222;28;20419;-74
2021/08/08 09:34:21;;;;;;;1.53;1.30;;;29.50;61.60;;;;;;5040916;28;20538;-75
2021/08/08 09:36:47;;;;;;;1.50;1.40;;;30.10;49.20;;;;;;5044226;28;20472;-74
2021/08/08 09:39:34;;;;;;;2.13;1.17;;;30.20;51.30;;;;;;5045624;28;20458;-74
2021/08/08 09:42:13;;;;;;;1.47;1.37;;;30.50;50.00;;;;;;5046220;28;20740;-74
2021/08/08 09:44:56;;;;;;;1.50;1.40;;;30.70;44.00;;;;;;5049671;28;20430;-72
2021/08/08 09:47:42;;;;;;;1.87;1.47;;;30.80;46.50;;;;;;5041411;28;20439;-73
2021/08/08 09:50:12;;;;;;;1.40;1.23;;;31.00;45.20;;;;;;5049373;28;20518;-73
2021/08/08 09:52:38;;;;;;;1.20;1.10;;;30.80;43.10;;;;;;5051292;28;20431;-74
2021/08/08 09:55:19;;;;;;;2.33;1.53;;;30.70;42.80;;;;;;5045521;28;20443;-74
2021/08/08 09:57:45;;;;;;;1.83;1.57;;;31.20;49.30;;;;;;5048118;28;20428;-74
2021/08/08 10:00:29;;;;;;;3.57;1.23;;;31.70;47.60;;;;;;5043868;28;20447;-74
2021/08/08 10:02:56;;;;;;;1.20;1.10;;;31.90;40.30;;;;;;5041000;28;20182;-75
2021/08/08 10:05:23;;;;;;;1.27;1.00;;;32.40;41.20;;;;;;5047722;28;20471;-74
2021/08/08 10:07:49;;;;;;;1.57;1.30;;;32.90;41.70;;;;;;5046236;28;21428;-76
2021/08/08 10:10:17;;;;;;;1.43;1.20;;;33.20;42.00;;;;;;5049100;28;20464;-76
2021/08/08 10:13:00;;;;;;;1.30;1.20;;;33.00;40.40;;;;;;5048519;28;20955;-76
2021/08/08 10:15:26;;;;;;;1.53;1.43;;;32.50;37.90;;;;;;5049175;28;20523;-74
2021/08/08 10:17:53;;;;;;;2.53;1.20;;;32.40;42.40;;;;;;5049170;28;20508;-74
2021/08/08 10:20:20;;;;;;;1.50;1.20;;;32.30;40.30;;;;;;5043245;28;20687;-75
2021/08/08 10:22:48;;;;;;;1.67;1.40;;;32.40;43.80;;;;;;5043769;28;20429;-73
2021/08/08 10:25:15;;;;;;;1.20;1.10;;;32.70;46.70;;;;;;5047139;28;20421;-74
2021/08/08 10:27:41;;;;;;;1.93;1.83;;;33.70;43.50;;;;;;5046662;28;21010;-73
2021/08/08 10:30:07;;;;;;;2.70;1.50;;;35.10;38.50;;;;;;5043831;28;20564;-73
2021/08/08 10:32:32;;;;;;;1.63;1.53;;;35.70;36.90;;;;;;5045035;28;20569;-74
2021/08/08 10:35:12;;;;;;;1.30;1.23;;;35.00;36.00;;;;;;5047049;28;20441;-73
2021/08/08 10:37:38;;;;;;;1.20;1.00;;;34.10;36.70;;;;;;5039725;28;20218;-74
2021/08/08 10:40:05;;;;;;;1.40;1.30;;;33.60;41.50;;;;;;5047026;28;20518;-75
2021/08/08 10:42:40;;;;;;;1.50;1.40;;;33.40;40.90;;;;;;5045044;28;21577;-74
2021/08/08 10:45:06;;;;;;;1.33;1.23;;;33.50;37.40;;;;;;5045133;28;20429;-74
2021/08/08 10:47:33;;;;;;;1.77;1.50;;;33.50;33.90;;;;;;5046601;28;20989;-74
2021/08/08 10:50:15;;;;;;;1.60;1.50;;;33.10;33.00;;;;;;5042471;28;20518;-73
2021/08/08 10:52:41;;;;;;;2.43;1.10;;;33.30;37.50;;;;;;5043164;28;20477;-74
2021/08/08 10:55:08;;;;;;;1.93;1.37;;;33.40;35.50;;;;;;5044600;28;20440;-73
2021/08/08 10:57:44;;;;;;;1.00;1.00;;;33.90;35.00;;;;;;5046957;28;20460;-74
2021/08/08 11:00:17;;;;;;;1.53;1.30;;;35.00;33.40;;;;;;5043506;28;20513;-74
2021/08/08 11:02:44;;;;;;;2.43;1.03;;;36.10;32.60;;;;;;5048033;28;20505;-75
2021/08/08 11:05:15;;;;;;;1.40;1.30;;;37.60;34.80;;;;;;5044511;28;20496;-73
2021/08/08 11:07:43;;;;;;;1.30;0.90;;;38.10;27.10;;;;;;5046334;28;20531;-75
2021/08/08 11:10:09;;;;;;;1.17;1.07;;;38.20;27.20;;;;;;5044591;28;20468;-75
2021/08/08 11:12:37;;;;;;;1.73;1.37;;;37.50;28.40;;;;;;5044733;28;20567;-75
2021/08/08 11:15:04;;;;;;;1.43;1.07;;;36.70;28.50;;;;;;5044173;28;20444;-74
2021/08/08 11:17:30;;;;;;;1.27;0.83;;;36.80;28.90;;;;;;5046070;28;20474;-74
2021/08/08 11:19:56;;;;;;;1.43;1.33;;;37.30;29.20;;;;;;5044683;28;20424;-74
2021/08/08 11:22:22;;;;;;;1.00;1.00;;;37.80;29.00;;;;;;5041150;28;20182;-75
2021/08/08 11:25:07;;;;;;;0.83;0.83;;;37.80;27.10;;;;;;5041048;28;20277;-73
2021/08/08 11:27:39;;;;;;;2.43;1.00;;;37.00;27.10;;;;;;5045603;28;20475;-74
2021/08/08 11:30:13;;;;;;;1.30;1.20;;;36.50;27.10;;;;;;5042144;28;20512;-74
2021/08/08 11:32:41;;;;;;;2.73;1.40;;;35.80;28.40;;;;;;5047383;28;20525;-74
2021/08/08 11:35:11;;;;;;;1.20;1.10;;;35.00;27.60;;;;;;5034270;28;20437;-74
2021/08/08 11:37:39;;;;;;;1.40;1.23;;;34.80;27.70;;;;;;5045725;28;20465;-74
2021/08/08 11:40:27;;;;;;;2.23;1.33;;;34.60;29.30;;;;;;5043781;28;20429;-75
2021/08/08 11:43:04;;;;;;;2.53;1.33;;;35.30;29.20;;;;;;5043607;28;20426;-74
2021/08/08 11:45:47;;;;;;;1.77;1.00;;;36.20;29.10;;;;;;5040847;28;20453;-73
2021/08/08 11:48:17;;;;;;;3.03;1.00;;;36.00;26.10;;;;;;5043775;28;20494;-74
2021/08/08 11:50:43;;;;;;;1.30;1.10;;;35.00;27.90;;;;;;5045169;28;20468;-74
2021/08/08 11:53:10;;;;;;;1.30;1.10;;;34.60;28.00;;;;;;5043681;28;20434;-74
2021/08/08 11:55:37;;;;;;;1.30;1.20;;;35.10;28.00;;;;;;5047477;28;20504;-74
2021/08/08 11:58:10;;;;;;;1.10;1.10;;;35.00;28.20;;;;;;5047255;28;20600;-74
2021/08/08 12:00:41;;;;;;;1.63;1.27;;;34.60;28.00;;;;;;5043228;28;20805;-74
2021/08/08 12:03:07;;;;;;;1.33;1.23;;;34.70;27.30;;;;;;5044794;28;20437;-73
2021/08/08 12:05:39;;;;;;;1.30;1.20;;;34.60;28.00;;;;;;5041879;28;20430;-76
2021/08/08 12:08:06;;;;;;;0.97;0.97;;;35.40;27.20;;;;;;5040515;28;20441;-74
2021/08/08 12:10:37;;;;;;;1.23;1.13;;;36.00;27.00;;;;;;5044925;28;20467;-73
2021/08/08 12:13:17;;;;;;;0.97;0.83;;;36.40;25.70;;;;;;5044993;28;20453;-74
2021/08/08 12:15:43;;;;;;;0.90;0.70;;;36.70;25.80;;;;;;5035649;28;20428;-75
2021/08/08 12:18:09;;;;;;;1.00;1.00;;;37.10;25.50;;;;;;5043360;28;20427;-74
2021/08/08 12:20:40;;;;;;;1.00;0.90;;;37.10;24.10;;;;;;5043526;28;20181;-74
2021/08/08 12:23:17;;;;;;;1.00;0.90;;;37.00;24.60;;;;;;5048327;28;20904;-73
2021/08/08 12:25:44;;;;;;;0.80;0.80;;;37.40;24.40;;;;;;5043733;28;20835;-72
2021/08/08 12:28:21;;;;;;;1.23;0.70;;;37.60;23.90;;;;;;5043995;28;20522;-75
2021/08/08 12:30:47;;;;;;;0.87;0.87;;;37.80;23.20;;;;;;5044815;28;20479;-74
2021/08/08 12:33:15;;;;;;;1.30;0.90;;;37.70;23.70;;;;;;5044726;28;20818;-74
2021/08/08 12:35:43;;;;;;;1.80;1.20;;;36.90;24.60;;;;;;5043387;28;20424;-73
2021/08/08 12:38:13;;;;;;;1.40;1.03;;;36.10;24.90;;;;;;5041579;28;20954;-74
2021/08/08 12:40:47;;;;;;;1.47;1.37;;;35.40;26.20;;;;;;5038361;28;20475;-77
2021/08/08 12:43:23;;;;;;;1.10;1.00;;;34.70;26.70;;;;;;5039395;28;20433;-75
2021/08/08 12:45:49;;;;;;;1.27;1.10;;;35.10;27.60;;;;;;5044093;28;20433;-74